Time;durP1;ratioP1;P1;durP2;ratioP2;P2;SDS_P1;SDS_P2;PMS_P1;PMS_P2;Temp;Humidity;BMP_temperature;BMP_pressure;BME280_temperature;BME280_humidity;BME280_pressure;Samples;Min_cycle;Max_cycle;Signal;HPM_P1;HPM_P2
2023/02/24 00:04:20;;;;;;;;;;;;;;;7.82;100.00;99335.47;10457169;28;19921;-72
2023/02/24 00:09:26;;;;;;;;;;;;;;;7.78;100.00;99333.84;10457412;28;19935;-72
2023/02/24 00:14:29;;;;;;;;;;;;;;;7.68;100.00;99332.44;10461047;28;19928;-72
2023/02/24 00:19:34;;;;;;;;;;;;;;;7.70;100.00;99330.59;10456602;28;19927;-72
2023/02/24 00:24:36;;;;;;;;;;;;;;;7.73;100.00;99328.75;10458038;28;20290;-71
2023/02/24 00:29:39;;;;;;;;;;;;;;;7.76;100.00;99331.28;10457406;28;19924;-71
2023/02/24 00:34:41;;;;;;;;;;;;;;;8.01;100.00;99325.25;10456200;28;19974;-71
2023/02/24 00:39:43;;;;;;;;;;;;;;;7.81;100.00;99326.75;10456373;28;19924;-71
2023/02/24 00:44:46;;;;;;;;;;;;;;;7.84;100.00;99328.44;10438918;28;19959;-71
2023/02/24 00:49:49;;;;;;;;;;;;;;;7.92;100.00;99320.31;10457089;28;19921;-71
2023/02/24 00:54:50;;;;;;;;;;;;;;;7.75;100.00;99316.50;10456059;28;19925;-71
2023/02/24 00:59:52;;;;;;;;;;;;;;;7.66;100.00;99311.56;10437475;28;19921;-71
2023/02/24 01:04:53;;;;;;;;;;;;;;;7.69;100.00;99313.22;10455720;28;19921;-71
2023/02/24 01:09:56;;;;;;;;;;;;;;;7.88;100.00;99303.00;10438415;28;19921;-71
2023/02/24 01:14:58;;;;;;;;;;;;;;;7.64;100.00;99302.03;10438237;28;19924;-71
2023/02/24 01:20:15;;;;;;;;;;;;;;;7.63;100.00;99300.34;10444726;28;19921;-71
2023/02/24 01:25:19;;;;;;;;;;;;;;;7.64;100.00;99297.66;10463522;28;20427;-71
2023/02/24 01:30:20;;;;;;;;;;;;;;;7.48;100.00;99299.03;10462861;28;20412;-71
2023/02/24 01:35:24;;;;;;;;;;;;;;;7.48;100.00;99286.84;10463362;28;19966;-71
2023/02/24 01:40:26;;;;;;;;;;;;;;;7.46;100.00;99278.16;10444309;28;19921;-72
2023/02/24 01:45:28;;;;;;;;;;;;;;;7.22;100.00;99271.94;10462325;28;19974;-71
2023/02/24 01:50:33;;;;;;;;;;;;;;;7.57;100.00;99267.38;10463765;28;20378;-72
2023/02/24 01:55:39;;;;;;;;;;;;;;;7.40;100.00;99262.69;10462831;28;19921;-72
2023/02/24 02:00:45;;;;;;;;;;;;;;;7.42;100.00;99260.88;10445701;28;19955;-72
2023/02/24 02:05:48;;;;;;;;;;;;;;;7.48;100.00;99254.56;10442849;28;19925;-71
2023/02/24 02:10:57;;;;;;;;;;;;;;;7.41;100.00;99253.94;10461154;28;19966;-71
2023/02/24 02:16:12;;;;;;;;;;;;;;;7.28;100.00;99245.59;10462142;28;19921;-72
2023/02/24 02:21:31;;;;;;;;;;;;;;;7.43;100.00;99239.03;10461058;28;19921;-72
2023/02/24 02:26:34;;;;;;;;;;;;;;;7.21;100.00;99238.84;10442781;28;19921;-72
2023/02/24 02:31:49;;;;;;;;;;;;;;;7.04;100.00;99234.16;10460571;28;20019;-72
2023/02/24 02:36:55;;;;;;;;;;;;;;;7.15;100.00;99227.75;10462409;28;19920;-72
2023/02/24 02:42:13;;;;;;;;;;;;;;;7.07;100.00;99226.19;10443285;28;20004;-72
2023/02/24 02:47:17;;;;;;;;;;;;;;;7.07;100.00;99225.34;10443660;28;19928;-72
2023/02/24 02:52:25;;;;;;;;;;;;;;;7.25;100.00;99227.41;10460701;28;20294;-72
2023/02/24 02:57:29;;;;;;;;;;;;;;;7.22;100.00;99218.81;10462269;28;19931;-72
2023/02/24 03:02:37;;;;;;;;;;;;;;;7.26;100.00;99216.06;10463950;28;19927;-72
2023/02/24 03:07:41;;;;;;;;;;;;;;;6.96;100.00;99211.78;10462706;28;20278;-72
2023/02/24 03:12:46;;;;;;;;;;;;;;;6.92;100.00;99212.78;10442407;28;19921;-72
2023/02/24 03:17:54;;;;;;;;;;;;;;;6.87;100.00;99225.97;10441254;28;20385;-72
2023/02/24 03:23:06;;;;;;;;;;;;;;;6.22;100.00;99228.69;10441524;28;20397;-72
2023/02/24 03:28:15;;;;;;;;;;;;;;;6.05;100.00;99222.16;10457807;28;19924;-72
2023/02/24 03:33:22;;;;;;;;;;;;;;;5.91;100.00;99224.22;10440142;28;19924;-72
2023/02/24 03:38:24;;;;;;;;;;;;;;;5.79;100.00;99216.72;10439763;28;20302;-72
2023/02/24 03:43:28;;;;;;;;;;;;;;;5.79;100.00;99217.56;10442518;28;19921;-72
2023/02/24 03:48:33;;;;;;;;;;;;;;;5.87;100.00;99208.69;10439152;28;19925;-72
2023/02/24 03:53:53;;;;;;;;;;;;;;;5.81;100.00;99217.53;10439439;28;19971;-73
2023/02/24 03:58:55;;;;;;;;;;;;;;;5.75;100.00;99213.31;10439616;28;19927;-72
2023/02/24 04:04:10;;;;;;;;;;;;;;;5.65;100.00;99221.41;10439965;28;19924;-71
2023/02/24 04:09:38;;;;;;;;;;;;;;;5.59;100.00;99217.22;10457632;28;19920;-72
2023/02/24 04:14:56;;;;;;;;;;;;;;;5.77;100.00;99201.13;10439738;28;19925;-73
2023/02/24 04:20:00;;;;;;;;;;;;;;;5.70;100.00;99201.31;10439764;28;19928;-72
2023/02/24 04:25:12;;;;;;;;;;;;;;;5.60;100.00;99192.84;10441776;28;19920;-71
2023/02/24 04:30:15;;;;;;;;;;;;;;;5.63;100.00;99176.28;10438835;28;19920;-72
2023/02/24 04:35:19;;;;;;;;;;;;;;;5.73;100.00;99167.34;10438767;28;19975;-72
2023/02/24 04:40:23;;;;;;;;;;;;;;;5.75;100.00;99168.13;10439112;28;19966;-73
2023/02/24 04:45:27;;;;;;;;;;;;;;;5.82;100.00;99154.06;10457827;28;20289;-73
2023/02/24 04:50:30;;;;;;;;;;;;;;;5.78;100.00;99150.66;10458380;28;20015;-73
2023/02/24 04:55:38;;;;;;;;;;;;;;;5.90;100.00;99144.28;10465288;28;19966;-73
2023/02/24 05:00:41;;;;;;;;;;;;;;;6.16;100.00;99140.97;10466087;28;19924;-72
2023/02/24 05:05:50;;;;;;;;;;;;;;;5.90;100.00;99135.59;10467169;28;19921;-73
2023/02/24 05:10:52;;;;;;;;;;;;;;;5.81;100.00;99134.94;10468698;28;19921;-73
2023/02/24 05:15:57;;;;;;;;;;;;;;;5.78;100.00;99131.56;10463697;28;19921;-73
2023/02/24 05:26:24;;;;;;;;;;;;;;;5.97;100.00;99121.50;10463792;28;19921;-73
2023/02/24 05:31:27;;;;;;;;;;;;;;;6.04;100.00;99123.91;10464970;28;19928;-73
2023/02/24 05:36:31;;;;;;;;;;;;;;;5.72;100.00;99131.72;10463113;28;19990;-73
2023/02/24 05:41:37;;;;;;;;;;;;;;;5.51;100.00;99133.13;10462738;28;19944;-73
2023/02/24 05:46:40;;;;;;;;;;;;;;;5.30;100.00;99129.31;10466110;28;19924;-73
2023/02/24 05:51:53;;;;;;;;;;;;;;;5.17;100.00;99127.91;10466206;28;19920;-72
2023/02/24 05:56:59;;;;;;;;;;;;;;;5.17;100.00;99135.72;10464702;28;19944;-72
2023/02/24 06:02:07;;;;;;;;;;;;;;;4.79;100.00;99135.75;10462115;28;19928;-73
2023/02/24 06:07:20;;;;;;;;;;;;;;;4.68;100.00;99129.91;10445450;28;19971;-72
2023/02/24 06:12:24;;;;;;;;;;;;;;;4.67;100.00;99132.56;10461926;28;20007;-70
2023/02/24 06:17:26;;;;;;;;;;;;;;;4.32;100.00;99138.50;10463585;28;19920;-70
2023/02/24 06:22:28;;;;;;;;;;;;;;;4.05;100.00;99135.56;10460466;28;19931;-70
2023/02/24 06:27:29;;;;;;;;;;;;;;;3.98;100.00;99142.63;10460910;28;19925;-71
2023/02/24 06:32:31;;;;;;;;;;;;;;;3.94;100.00;99138.41;10442632;28;19921;-70
2023/02/24 06:37:34;;;;;;;;;;;;;;;3.80;100.00;99148.19;10462048;28;19921;-71
2023/02/24 06:42:38;;;;;;;;;;;;;;;3.72;100.00;99148.34;10460237;28;19920;-71
2023/02/24 06:47:41;;;;;;;;;;;;;;;3.68;100.00;99145.84;10460045;28;19925;-71
2023/02/24 06:52:44;;;;;;;;;;;;;;;3.79;100.00;99139.53;10459950;28;20424;-71
2023/02/24 06:57:46;;;;;;;;;;;;;;;3.57;100.00;99133.00;10444415;28;20374;-71
2023/02/24 07:02:50;;;;;;;;;;;;;;;3.73;100.00;99144.84;10459815;28;19924;-71
2023/02/24 07:07:51;;;;;;;;;;;;;;;3.66;100.00;99140.63;10460165;28;20281;-71
2023/02/24 07:12:53;;;;;;;;;;;;;;;3.52;100.00;99142.63;10458702;28;19921;-71
2023/02/24 07:17:55;;;;;;;;;;;;;;;3.46;100.00;99141.00;10461379;28;19920;-70
2023/02/24 07:22:57;;;;;;;;;;;;;;;3.43;100.00;99132.41;10460441;28;19924;-69
2023/02/24 07:28:02;;;;;;;;;;;;;;;3.57;100.00;99132.16;10437948;28;19928;-71
2023/02/24 07:33:04;;;;;;;;;;;;;;;3.45;100.00;99123.72;10411153;28;20287;-70
2023/02/24 07:38:08;;;;;;;;;;;;;;;3.24;100.00;99126.66;10443686;28;19928;-71
2023/02/24 07:43:09;;;;;;;;;;;;;;;3.16;100.00;99124.19;10401067;23;19921;-80
2023/02/24 07:48:13;;;;;;;;;;;;;;;3.17;100.00;99112.91;10381030;28;19948;-80
2023/02/24 07:53:15;;;;;;;;;;;;;;;3.12;100.00;99114.72;10339743;28;20280;-79
2023/02/24 07:58:17;;;;;;;;;;;;;;;3.09;100.00;99109.56;10352549;28;20375;-81
2023/02/24 08:03:19;;;;;;;;;;;;;;;3.12;100.00;99100.91;10352513;28;19922;-80
2023/02/24 08:08:24;;;;;;;;;;;;;;;2.96;100.00;99088.16;10321899;28;19922;-80
2023/02/24 08:13:30;;;;;;;;;;;;;;;3.16;100.00;99089.56;10349305;28;19922;-81
2023/02/24 08:18:36;;;;;;;;;;;;;;;2.94;100.00;99089.94;10332650;28;19925;-80
2023/02/24 08:23:51;;;;;;;;;;;;;;;3.40;100.00;99073.56;10352484;28;19968;-81
2023/02/24 08:28:58;;;;;;;;;;;;;;;3.39;100.00;99066.66;10327734;28;19921;-80
2023/02/24 08:34:00;;;;;;;;;;;;;;;3.14;100.00;99055.81;10349531;28;19984;-80
2023/02/24 08:39:02;;;;;;;;;;;;;;;3.22;100.00;99050.50;10351486;28;20453;-81
2023/02/24 08:44:04;;;;;;;;;;;;;;;3.36;100.00;99052.84;10362246;28;19922;-81
2023/02/24 08:49:09;;;;;;;;;;;;;;;3.34;100.00;99047.69;10362089;28;19988;-80
2023/02/24 08:54:34;;;;;;;;;;;;;;;3.46;100.00;99044.88;10362341;28;19929;-80
2023/02/24 09:00:00;;;;;;;;;;;;;;;3.60;100.00;99029.03;10365967;28;19921;-80
2023/02/24 09:05:12;;;;;;;;;;;;;;;3.46;100.00;99020.66;10362983;28;19917;-81
2023/02/24 09:10:18;;;;;;;;;;;;;;;3.41;100.00;99010.34;10359241;28;19921;-81
2023/02/24 09:15:24;;;;;;;;;;;;;;;3.52;100.00;98997.97;10359929;28;19922;-79
2023/02/24 09:25:48;;;;;;;;;;;;;;;4.03;100.00;98987.41;10353821;28;19957;-80
2023/02/24 09:30:54;;;;;;;;;;;;;;;3.97;98.50;98971.91;10354832;28;19928;-79
2023/02/24 09:36:01;;;;;;;;;;;;;;;3.83;100.00;98962.72;10354506;28;19965;-81
2023/02/24 09:41:54;;;;;;;;;;;;;;;4.01;99.69;98955.34;10338008;28;19921;-82
2023/02/24 09:47:07;;;;;;;;;;;;;;;4.03;100.00;98943.19;10367837;28;19928;-82
2023/02/24 09:52:18;;;;;;;;;;;;;;;3.89;100.00;98942.63;10368722;28;19922;-82
2023/02/24 09:57:24;;;;;;;;;;;;;;;4.27;99.70;98928.75;10382808;28;19976;-81
2023/02/24 10:02:27;;;;;;;;;;;;;;;4.34;99.84;98925.97;10380550;28;19952;-80
2023/02/24 10:07:39;;;;;;;;;;;;;;;4.48;100.00;98918.72;10384971;28;19925;-82
2023/02/24 10:12:41;;;;;;;;;;;;;;;4.84;100.00;98903.91;10386104;28;20067;-81
2023/02/24 10:17:46;;;;;;;;;;;;;;;4.84;100.00;98896.09;10384499;28;19925;-82
2023/02/24 10:22:54;;;;;;;;;;;;;;;5.00;100.00;98878.28;10356689;28;19922;-81
2023/02/24 10:27:58;;;;;;;;;;;;;;;5.50;98.67;98865.56;10359054;28;19921;-80
2023/02/24 10:33:04;;;;;;;;;;;;;;;5.50;96.14;98855.16;10374350;28;20406;-80
2023/02/24 10:38:05;;;;;;;;;;;;;;;5.93;94.51;98848.63;10355887;28;19933;-79
2023/02/24 10:43:09;;;;;;;;;;;;;;;5.85;93.69;98833.19;10381887;28;19910;-80
2023/02/24 10:48:26;;;;;;;;;;;;;;;6.00;93.46;98824.06;10384221;28;19922;-80
2023/02/24 10:53:42;;;;;;;;;;;;;;;5.85;95.96;98809.72;10375517;28;19932;-80
2023/02/24 11:04:00;;;;;;;;;;;;;;;5.90;92.69;98805.22;10363855;28;19921;-80
2023/02/24 11:09:18;;;;;;;;;;;;;;;5.73;93.50;98786.66;10366440;28;20036;-81
2023/02/24 11:19:46;;;;;;;;;;;;;;;6.07;97.11;98753.38;10364128;28;19937;-81
2023/02/24 11:24:49;;;;;;;;;;;;;;;6.08;95.49;98735.97;10361316;28;19949;-81
2023/02/24 11:30:05;;;;;;;;;;;;;;;6.57;93.74;98732.47;10335077;28;19921;-79
2023/02/24 11:35:11;;;;;;;;;;;;;;;6.66;90.76;98718.22;10355984;28;19921;-80
2023/02/24 11:40:22;;;;;;;;;;;;;;;6.50;92.70;98707.47;10357651;28;19945;-81
2023/02/24 11:45:42;;;;;;;;;;;;;;;6.83;87.52;98699.31;10357594;28;20311;-80
2023/02/24 11:50:46;;;;;;;;;;;;;;;6.68;93.64;98684.22;10336733;28;19928;-82
2023/02/24 11:55:50;;;;;;;;;;;;;;;7.15;91.99;98673.72;10340856;28;20016;-81
2023/02/24 12:00:58;;;;;;;;;;;;;;;7.00;89.20;98662.09;10366341;28;20005;-80
2023/02/24 12:06:11;;;;;;;;;;;;;;;6.89;90.33;98662.50;10373507;28;19957;-81
2023/02/24 12:11:24;;;;;;;;;;;;;;;6.65;86.61;98648.63;10322301;28;19927;-81
2023/02/24 12:16:32;;;;;;;;;;;;;;;6.49;87.63;98632.69;10346484;28;20012;-81
2023/02/24 12:21:43;;;;;;;;;;;;;;;6.48;90.34;98617.94;10312595;28;19929;-81
2023/02/24 12:27:06;;;;;;;;;;;;;;;6.71;87.40;98616.22;10345320;28;19980;-81
2023/02/24 12:32:17;;;;;;;;;;;;;;;6.72;82.74;98605.69;10352263;28;19928;-82
2023/02/24 12:37:37;;;;;;;;;;;;;;;6.47;85.10;98613.63;10333321;28;19928;-80
2023/02/24 12:42:39;;;;;;;;;;;;;;;6.35;86.86;98606.25;10344651;28;19964;-81
2023/02/24 12:47:49;;;;;;;;;;;;;;;6.15;86.67;98595.69;10328353;28;19921;-80
2023/02/24 12:52:54;;;;;;;;;;;;;;;6.19;87.92;98579.88;10346632;28;19929;-80
2023/02/24 12:58:03;;;;;;;;;;;;;;;6.43;85.07;98561.59;10347733;28;19922;-80
2023/02/24 13:03:18;;;;;;;;;;;;;;;6.38;86.24;98555.72;10351642;28;20020;-80
2023/02/24 13:08:31;;;;;;;;;;;;;;;6.38;84.61;98545.28;10345145;28;19933;-81
2023/02/24 13:13:41;;;;;;;;;;;;;;;6.25;85.87;98534.47;10331994;28;20280;-81
2023/02/24 13:18:44;;;;;;;;;;;;;;;6.29;87.40;98530.81;10354584;28;19926;-81
2023/02/24 13:23:54;;;;;;;;;;;;;;;6.62;84.15;98509.53;10342396;28;19969;-80
2023/02/24 13:29:08;;;;;;;;;;;;;;;6.72;84.98;98501.25;10380342;28;19917;-81
2023/02/24 13:34:27;;;;;;;;;;;;;;;6.85;84.49;98495.53;10360365;28;19928;-82
2023/02/24 13:40:06;;;;;;;;;;;;;;;;;;;;;
2023/02/24 13:45:56;;;;;;;;;;;;;;;6.83;84.75;98486.00;10329782;28;19921;-86
2023/02/24 13:51:04;;;;;;;;;;;;;;;6.85;84.52;98465.03;10460348;28;20288;-85
2023/02/24 13:56:09;;;;;;;;;;;;;;;6.83;82.99;98465.09;10443190;28;19964;-84
2023/02/24 14:01:13;;;;;;;;;;;;;;;6.84;81.99;98458.13;10419226;28;20333;-86
2023/02/24 14:06:25;;;;;;;;;;;;;;;6.70;83.94;98452.63;10420368;28;19932;-84
2023/02/24 14:11:32;;;;;;;;;;;;;;;6.58;86.44;98446.97;10424781;28;19921;-85
2023/02/24 14:16:47;;;;;;;;;;;;;;;6.36;90.58;98453.13;10453528;28;19921;-84
2023/02/24 14:21:57;;;;;;;;;;;;;;;6.32;91.24;98453.25;10437167;28;19921;-86
2023/02/24 14:27:03;;;;;;;;;;;;;;;6.22;95.31;98456.28;10449539;28;19905;-84
2023/02/24 14:32:05;;;;;;;;;;;;;;;6.03;97.93;98443.97;10435833;28;19925;-84
2023/02/24 14:37:15;;;;;;;;;;;;;;;5.74;98.63;98436.38;10443341;28;20440;-84
2023/02/24 14:42:18;;;;;;;;;;;;;;;5.73;98.98;98426.84;10438292;28;19944;-84
2023/02/24 14:47:21;;;;;;;;;;;;;;;5.72;99.38;98415.56;10436952;28;20333;-85
2023/02/24 14:52:32;;;;;;;;;;;;;;;5.92;97.18;98411.38;10436976;28;20314;-84
2023/02/24 14:57:36;;;;;;;;;;;;;;;5.95;96.58;98401.69;10439987;28;19921;-84
2023/02/24 15:02:44;;;;;;;;;;;;;;;5.91;98.00;98394.00;10438986;28;19921;-84
2023/02/24 15:07:49;;;;;;;;;;;;;;;5.87;96.88;98392.41;10430702;28;19921;-83
2023/02/24 15:12:58;;;;;;;;;;;;;;;5.84;95.36;98377.72;10462308;28;19935;-82
2023/02/24 15:18:07;;;;;;;;;;;;;;;5.76;96.68;98367.63;10467807;28;19905;-84
2023/02/24 15:23:35;;;;;;;;;;;;;;;5.86;94.32;98360.28;10451468;28;19912;-83
2023/02/24 15:28:37;;;;;;;;;;;;;;;6.27;88.39;98358.66;10460276;28;19965;-84
2023/02/24 15:33:40;;;;;;;;;;;;;;;6.15;89.58;98346.09;10439723;28;19921;-84
2023/02/24 15:38:43;;;;;;;;;;;;;;;6.41;85.87;98352.84;10445295;28;19996;-84
2023/02/24 15:43:51;;;;;;;;;;;;;;;5.97;88.99;98347.69;10461568;28;20004;-84
2023/02/24 15:48:55;;;;;;;;;;;;;;;5.94;89.61;98334.78;10456524;28;19920;-85
2023/02/24 15:53:58;;;;;;;;;;;;;;;5.69;88.24;98340.09;10417997;28;19921;-85
2023/02/24 15:59:02;;;;;;;;;;;;;;;5.35;89.93;98345.72;10433088;28;20425;-85
2023/02/24 16:04:04;;;;;;;;;;;;;;;5.25;90.53;98344.38;10435134;28;19948;-85
2023/02/24 16:09:06;;;;;;;;;;;;;;;4.94;93.91;98340.28;10418849;28;19925;-85
2023/02/24 16:14:12;;;;;;;;;;;;;;;4.86;96.88;98334.50;10436866;28;19921;-85
2023/02/24 16:19:14;;;;;;;;;;;;;;;4.61;100.00;98334.53;10426302;28;19927;-84
2023/02/24 16:24:16;;;;;;;;;;;;;;;4.55;100.00;98325.19;10439020;28;19921;-83
2023/02/24 16:29:18;;;;;;;;;;;;;;;4.94;96.81;98319.47;10441205;28;19996;-83
2023/02/24 16:34:19;;;;;;;;;;;;;;;4.68;99.20;98327.34;10438599;28;19971;-84
2023/02/24 16:39:21;;;;;;;;;;;;;;;4.61;100.00;98326.75;10436321;28;19960;-83
2023/02/24 16:44:24;;;;;;;;;;;;;;;4.42;100.00;98321.28;10440003;28;20019;-84
2023/02/24 16:49:25;;;;;;;;;;;;;;;4.34;100.00;98320.75;10451339;28;20394;-84
2023/02/24 16:54:28;;;;;;;;;;;;;;;4.30;100.00;98322.59;10423859;28;19975;-84
2023/02/24 16:59:29;;;;;;;;;;;;;;;4.35;100.00;98322.44;10440218;28;19921;-84
2023/02/24 17:04:31;;;;;;;;;;;;;;;4.04;100.00;98315.66;10444536;28;19951;-84
2023/02/24 17:09:33;;;;;;;;;;;;;;;4.12;100.00;98314.53;10443816;28;19921;-84
2023/02/24 17:14:34;;;;;;;;;;;;;;;4.19;100.00;98300.44;10447931;28;19905;-83
2023/02/24 17:19:36;;;;;;;;;;;;;;;4.14;100.00;98302.34;10451665;28;19924;-83
2023/02/24 17:24:41;;;;;;;;;;;;;;;4.00;100.00;98297.59;10438770;28;19943;-82
2023/02/24 17:29:42;;;;;;;;;;;;;;;3.95;100.00;98297.75;10440607;28;19925;-84
2023/02/24 17:34:44;;;;;;;;;;;;;;;4.02;100.00;98287.97;10438667;28;19921;-85
2023/02/24 17:39:45;;;;;;;;;;;;;;;3.93;100.00;98288.28;10440524;28;19924;-85
2023/02/24 17:44:49;;;;;;;;;;;;;;;3.76;100.00;98281.91;10423081;28;19928;-84
2023/02/24 17:49:51;;;;;;;;;;;;;;;3.86;100.00;98281.63;10441211;28;20016;-84
2023/02/24 17:54:53;;;;;;;;;;;;;;;3.69;100.00;98267.41;10435842;28;19940;-84
2023/02/24 17:59:55;;;;;;;;;;;;;;;3.59;100.00;98262.56;10441892;28;19984;-84
2023/02/24 18:04:56;;;;;;;;;;;;;;;3.58;100.00;98260.84;10420662;28;19944;-83
2023/02/24 18:09:58;;;;;;;;;;;;;;;3.58;100.00;98256.50;10435741;28;20363;-84
2023/02/24 18:15:00;;;;;;;;;;;;;;;3.52;100.00;98246.31;10438342;28;19944;-84
2023/02/24 18:20:14;;;;;;;;;;;;;;;3.59;100.00;98249.56;10438251;28;19992;-83
2023/02/24 18:25:15;;;;;;;;;;;;;;;3.52;100.00;98243.72;10439196;28;19975;-83
2023/02/24 18:30:17;;;;;;;;;;;;;;;3.49;100.00;98236.84;10418074;28;19921;-84
2023/02/24 18:35:20;;;;;;;;;;;;;;;3.34;100.00;98231.31;10436493;28;19929;-84
2023/02/24 18:40:29;;;;;;;;;;;;;;;3.24;100.00;98235.94;10421699;28;19947;-82
2023/02/24 18:45:33;;;;;;;;;;;;;;;3.27;100.00;98230.63;10420178;28;20341;-84
2023/02/24 18:50:35;;;;;;;;;;;;;;;3.21;100.00;98223.06;10434496;28;19921;-84
2023/02/24 18:55:37;;;;;;;;;;;;;;;3.16;100.00;98220.59;10417743;28;19940;-84
2023/02/24 19:00:42;;;;;;;;;;;;;;;2.98;100.00;98223.75;10415259;28;19921;-83
2023/02/24 19:05:44;;;;;;;;;;;;;;;2.94;100.00;98214.38;10396106;28;19920;-84
2023/02/24 19:10:48;;;;;;;;;;;;;;;2.91;100.00;98210.09;10415219;28;19921;-84
2023/02/24 19:15:51;;;;;;;;;;;;;;;2.85;100.00;98202.50;10423272;28;19994;-84
2023/02/24 19:20:53;;;;;;;;;;;;;;;2.87;100.00;98194.66;10437737;28;19921;-84
2023/02/24 19:25:58;;;;;;;;;;;;;;;2.82;100.00;98192.22;10413847;28;19974;-83
2023/02/24 19:30:59;;;;;;;;;;;;;;;2.67;100.00;98196.13;10434778;28;19928;-85
2023/02/24 19:36:01;;;;;;;;;;;;;;;2.58;100.00;98186.03;10442168;28;20282;-85
2023/02/24 19:41:28;;;;;;;;;;;;;;;2.39;100.00;98185.72;10443407;22;19956;31
2023/02/24 19:46:31;;;;;;;;;;;;;;;2.42;100.00;98171.78;10312604;28;19948;-81
2023/02/24 19:51:33;;;;;;;;;;;;;;;2.29;100.00;98171.28;10334204;28;19932;-80
2023/02/24 19:56:35;;;;;;;;;;;;;;;2.31;100.00;98160.88;10335876;28;19922;-81
2023/02/24 20:01:38;;;;;;;;;;;;;;;2.28;100.00;98160.06;10337693;28;19932;-80
2023/02/24 20:06:44;;;;;;;;;;;;;;;2.37;100.00;98163.28;10321185;28;19922;-81
2023/02/24 20:11:46;;;;;;;;;;;;;;;2.50;100.00;98162.03;10319553;28;19922;-81
2023/02/24 20:16:48;;;;;;;;;;;;;;;2.48;100.00;98156.06;10303449;28;19926;-79
2023/02/24 20:21:50;;;;;;;;;;;;;;;2.54;100.00;98140.31;10335226;28;20323;-81
2023/02/24 20:26:52;;;;;;;;;;;;;;;2.57;100.00;98137.63;10326256;28;19929;-81
2023/02/24 20:31:53;;;;;;;;;;;;;;;2.69;100.00;98133.81;10323308;28;19962;-80
2023/02/24 20:36:55;;;;;;;;;;;;;;;2.81;100.00;98127.41;10303681;28;19950;-82
2023/02/24 20:41:57;;;;;;;;;;;;;;;2.88;100.00;98131.50;10307667;28;20041;-82
2023/02/24 20:46:59;;;;;;;;;;;;;;;2.87;100.00;98135.00;10335672;28;19949;-81
2023/02/24 20:52:01;;;;;;;;;;;;;;;2.87;100.00;98133.25;10308114;28;19950;-80
2023/02/24 20:57:02;;;;;;;;;;;;;;;2.98;100.00;98107.81;10331827;28;19990;-81
2023/02/24 21:02:04;;;;;;;;;;;;;;;2.96;100.00;98116.53;10320378;28;19922;-81
2023/02/24 21:07:07;;;;;;;;;;;;;;;2.98;100.00;98113.00;10299366;28;19930;-80
2023/02/24 21:12:08;;;;;;;;;;;;;;;2.96;100.00;98122.56;10281151;28;19926;-80
2023/02/24 21:17:10;;;;;;;;;;;;;;;3.17;100.00;98094.22;10296933;28;19922;-82
2023/02/24 21:22:12;;;;;;;;;;;;;;;3.16;100.00;98085.59;10314063;28;19922;-81
2023/02/24 21:27:14;;;;;;;;;;;;;;;3.10;100.00;98075.44;10296437;28;19922;-81
2023/02/24 21:32:15;;;;;;;;;;;;;;;3.10;100.00;98088.41;10279473;28;20273;-81
2023/02/24 21:37:17;;;;;;;;;;;;;;;3.22;100.00;98081.94;10318965;28;19949;-80
2023/02/24 21:42:21;;;;;;;;;;;;;;;3.34;100.00;98080.69;10319226;28;19929;-81
2023/02/24 21:47:22;;;;;;;;;;;;;;;3.42;100.00;98076.94;10288266;28;19922;-82
2023/02/24 21:52:24;;;;;;;;;;;;;;;3.38;100.00;98071.91;10287311;28;19929;-81
2023/02/24 21:57:25;;;;;;;;;;;;;;;3.39;100.00;98077.03;10286550;28;20383;-82
2023/02/24 22:02:27;;;;;;;;;;;;;;;3.44;100.00;98062.13;10303099;28;19953;-82
2023/02/24 22:07:28;;;;;;;;;;;;;;;3.47;100.00;98062.03;10301033;28;19933;-81
2023/02/24 22:12:30;;;;;;;;;;;;;;;3.44;100.00;98061.28;10300734;28;19929;-80
2023/02/24 22:17:32;;;;;;;;;;;;;;;3.46;100.00;98039.56;10319743;28;19922;-81
2023/02/24 22:22:37;;;;;;;;;;;;;;;3.44;99.28;98030.13;10319667;28;19922;-82
2023/02/24 22:27:39;;;;;;;;;;;;;;;3.45;99.39;98016.22;10318816;28;19944;-82
2023/02/24 22:32:40;;;;;;;;;;;;;;;3.42;99.72;98032.78;10300489;28;19921;-81
2023/02/24 22:37:42;;;;;;;;;;;;;;;3.43;100.00;98034.47;10318100;28;19922;-79
2023/02/24 22:42:44;;;;;;;;;;;;;;;3.39;100.00;98025.09;10301026;28;19965;-81
2023/02/24 22:47:45;;;;;;;;;;;;;;;3.18;100.00;98024.06;10300790;28;19922;-78
2023/02/24 22:52:48;;;;;;;;;;;;;;;3.12;100.00;98026.03;10337259;28;20029;-81
2023/02/24 22:57:49;;;;;;;;;;;;;;;3.17;100.00;98017.19;10322905;28;19922;-81
2023/02/24 23:02:51;;;;;;;;;;;;;;;3.14;100.00;98016.44;10338798;28;19922;-80
2023/02/24 23:07:52;;;;;;;;;;;;;;;3.10;100.00;98017.44;10329412;28;19976;-81
2023/02/24 23:12:54;;;;;;;;;;;;;;;3.06;100.00;98021.06;10314869;28;19922;-82
2023/02/24 23:17:55;;;;;;;;;;;;;;;3.04;100.00;98021.09;10303726;28;19922;-80
2023/02/24 23:22:57;;;;;;;;;;;;;;;3.05;100.00;98017.59;10329565;28;19933;-79
2023/02/24 23:27:59;;;;;;;;;;;;;;;3.07;100.00;98021.00;10287574;28;19926;-78
2023/02/24 23:33:01;;;;;;;;;;;;;;;3.04;100.00;98028.88;10342237;28;19926;-82
2023/02/24 23:38:03;;;;;;;;;;;;;;;3.05;100.00;98030.56;10346449;28;19972;-82
2023/02/24 23:43:05;;;;;;;;;;;;;;;2.89;100.00;98037.19;10329677;28;19917;-82
2023/02/24 23:48:11;;;;;;;;;;;;;;;2.73;100.00;98037.69;10327793;28;19910;-81
2023/02/24 23:53:12;;;;;;;;;;;;;;;2.65;100.00;98037.06;10338840;28;19945;-80
2023/02/24 23:58:15;;;;;;;;;;;;;;;2.64;100.00;98034.53;10328847;28;19988;-80
